createdAt,value
2023-04-25T00:00:12.804Z,100.00
2023-04-25T00:02:14.451Z,100.00
2023-04-25T00:04:16.325Z,100.00
2023-04-25T00:06:18.213Z,100.00
2023-04-25T00:08:19.620Z,100.00
2023-04-25T00:10:21.759Z,100.00
2023-04-25T00:12:23.322Z,100.00
2023-04-25T00:14:24.731Z,100.00
2023-04-25T00:16:26.374Z,100.00
2023-04-25T00:18:27.911Z,100.00
2023-04-25T00:20:29.336Z,100.00
2023-04-25T00:22:31.005Z,100.00
2023-04-25T00:24:32.493Z,100.00
2023-04-25T00:26:35.580Z,100.00
2023-04-25T00:28:37.187Z,100.00
2023-04-25T00:30:39.945Z,100.00
2023-04-25T00:32:41.525Z,100.00
2023-04-25T00:34:43.295Z,100.00
2023-04-25T00:36:44.944Z,100.00
2023-04-25T00:38:46.350Z,100.00
2023-04-25T00:40:48.237Z,100.00
2023-04-25T00:42:50.845Z,100.00
2023-04-25T00:44:53.755Z,100.00
2023-04-25T00:46:55.390Z,100.00
2023-04-25T00:48:56.959Z,100.00
2023-04-25T00:50:59.839Z,100.00
2023-04-25T00:53:01.656Z,100.00
2023-04-25T00:55:03.513Z,100.00
2023-04-25T00:57:05.128Z,100.00
2023-04-25T00:59:06.921Z,100.00
2023-04-25T01:01:09.305Z,100.00
2023-04-25T01:03:11.117Z,100.00
2023-04-25T01:05:12.765Z,100.00
2023-04-25T01:07:14.555Z,100.00
2023-04-25T01:09:16.055Z,100.00
2023-04-25T01:11:18.091Z,100.00
2023-04-25T01:13:19.781Z,100.00
2023-04-25T01:15:21.299Z,100.00
2023-04-25T01:17:22.969Z,100.00
2023-04-25T01:19:24.882Z,100.00
2023-04-25T01:21:26.363Z,100.00
2023-04-25T01:23:27.917Z,100.00
2023-04-25T01:25:30.499Z,100.00
2023-04-25T01:27:32.111Z,100.00
2023-04-25T01:29:35.488Z,100.00
2023-04-25T01:31:37.809Z,100.00
2023-04-25T01:33:39.344Z,100.00
2023-04-25T01:35:40.895Z,100.00
2023-04-25T01:37:43.559Z,100.00
2023-04-25T01:39:45.197Z,100.00
2023-04-25T01:41:50.071Z,100.00
2023-04-25T01:43:51.951Z,100.00
2023-04-25T01:45:53.597Z,100.00
2023-04-25T01:47:55.183Z,100.00
2023-04-25T01:49:57.481Z,100.00
2023-04-25T01:51:58.972Z,100.00
2023-04-25T01:54:01.304Z,100.00
2023-04-25T01:56:02.987Z,100.00
2023-04-25T01:58:05.166Z,100.00
2023-04-25T02:00:07.638Z,100.00
2023-04-25T02:02:09.281Z,100.00
2023-04-25T02:04:10.917Z,100.00
2023-04-25T02:06:12.677Z,100.00
2023-04-25T02:08:14.402Z,100.00
2023-04-25T02:10:16.009Z,100.00
2023-04-25T02:12:17.518Z,100.00
2023-04-25T02:14:19.018Z,100.00
2023-04-25T02:16:20.570Z,100.00
2023-04-25T02:18:22.342Z,100.00
2023-04-25T02:20:25.188Z,100.00
2023-04-25T02:22:26.585Z,100.00
2023-04-25T02:24:28.119Z,100.00
2023-04-25T02:26:30.115Z,100.00
2023-04-25T02:28:31.606Z,100.00
2023-04-25T02:30:33.101Z,100.00
2023-04-25T02:32:35.052Z,100.00
2023-04-25T02:34:36.525Z,100.00
2023-04-25T02:36:38.096Z,100.00
2023-04-25T02:38:40.156Z,100.00
2023-04-25T02:40:41.756Z,100.00
2023-04-25T02:42:43.310Z,100.00
2023-04-25T02:44:44.886Z,100.00
2023-04-25T02:46:46.404Z,100.00
2023-04-25T02:48:48.179Z,100.00
2023-04-25T02:50:49.781Z,100.00
2023-04-25T02:52:51.192Z,100.00
2023-04-25T02:54:52.701Z,100.00
2023-04-25T02:56:54.181Z,100.00
2023-04-25T02:58:55.580Z,100.00
2023-04-25T03:00:57.133Z,100.00
2023-04-25T03:02:58.870Z,100.00
2023-04-25T03:05:00.360Z,100.00
2023-04-25T03:07:01.888Z,100.00
2023-04-25T03:09:03.495Z,100.00
2023-04-25T03:11:04.964Z,100.00
2023-04-25T03:13:06.532Z,100.00
2023-04-25T03:15:08.410Z,100.00
2023-04-25T03:17:09.792Z,100.00
2023-04-25T03:19:11.385Z,100.00
2023-04-25T03:21:12.953Z,100.00
2023-04-25T03:23:14.383Z,100.00
2023-04-25T03:25:15.859Z,100.00
2023-04-25T03:27:18.496Z,100.00
2023-04-25T03:29:20.009Z,100.00
2023-04-25T03:31:21.700Z,100.00
2023-04-25T03:33:23.385Z,100.00
2023-04-25T03:35:26.006Z,100.00
2023-04-25T03:37:28.046Z,100.00
2023-04-25T03:39:29.568Z,100.00
2023-04-25T03:41:30.962Z,100.00
2023-04-25T03:43:32.543Z,100.00
2023-04-25T03:45:34.093Z,100.00
2023-04-25T03:47:35.579Z,100.00
2023-04-25T03:49:37.114Z,100.00
2023-04-25T03:51:39.165Z,100.00
2023-04-25T03:53:40.578Z,100.00
2023-04-25T03:55:43.498Z,100.00
2023-04-25T03:57:45.259Z,100.00
2023-04-25T03:59:46.682Z,100.00
2023-04-25T04:01:48.149Z,100.00
2023-04-25T04:03:50.101Z,100.00
2023-04-25T04:05:52.044Z,100.00
2023-04-25T04:07:53.831Z,100.00
2023-04-25T04:09:55.640Z,100.00
2023-04-25T04:11:57.061Z,100.00
2023-04-25T04:13:58.645Z,100.00
2023-04-25T04:16:00.469Z,100.00
2023-04-25T04:18:02.015Z,100.00
2023-04-25T04:20:03.850Z,100.00
2023-04-25T04:22:05.532Z,100.00
2023-04-25T04:24:07.116Z,100.00
2023-04-25T04:26:08.782Z,100.00
2023-04-25T04:28:10.282Z,100.00
2023-04-25T04:30:12.014Z,100.00
2023-04-25T04:32:14.893Z,100.00
2023-04-25T04:34:16.379Z,100.00
2023-04-25T04:36:17.800Z,100.00
2023-04-25T04:38:19.383Z,100.00
2023-04-25T04:40:21.183Z,100.00
2023-04-25T04:42:22.729Z,100.00
2023-04-25T04:44:24.256Z,100.00
2023-04-25T04:46:25.954Z,100.00
2023-04-25T04:48:27.498Z,100.00
2023-04-25T04:50:29.091Z,100.00
2023-04-25T04:52:30.935Z,100.00
2023-04-25T04:54:32.349Z,100.00
2023-04-25T04:56:33.936Z,100.00
2023-04-25T04:58:35.542Z,100.00
2023-04-25T05:00:37.020Z,100.00
2023-04-25T05:02:39.694Z,100.00
2023-04-25T05:04:41.670Z,100.00
2023-04-25T05:06:44.000Z,100.00
2023-04-25T05:08:45.795Z,100.00
2023-04-25T05:10:47.476Z,100.00
2023-04-25T05:12:48.871Z,100.00
2023-04-25T05:14:50.515Z,100.00
2023-04-25T05:16:52.145Z,100.00
2023-04-25T05:18:53.606Z,100.00
2023-04-25T05:20:55.078Z,100.00
2023-04-25T05:22:56.798Z,100.00
2023-04-25T05:24:58.234Z,100.00
2023-04-25T05:26:59.869Z,100.00
2023-04-25T05:29:01.684Z,100.00
2023-04-25T05:31:03.084Z,100.00
2023-04-25T05:33:04.631Z,100.00
2023-04-25T05:35:06.603Z,100.00
2023-04-25T05:37:08.302Z,100.00
2023-04-25T05:39:09.927Z,100.00
2023-04-25T05:41:11.464Z,100.00
2023-04-25T05:43:12.923Z,100.00
2023-04-25T05:45:14.681Z,100.00
2023-04-25T05:47:16.184Z,100.00
2023-04-25T05:49:19.510Z,100.00
2023-04-25T05:51:21.419Z,100.00
2023-04-25T05:53:23.010Z,100.00
2023-04-25T05:55:24.535Z,100.00
2023-04-25T05:57:28.022Z,100.00
2023-04-25T05:59:29.499Z,100.00
2023-04-25T06:01:31.075Z,100.00
2023-04-25T06:03:32.829Z,100.00
2023-04-25T06:05:34.525Z,100.00
2023-04-25T06:07:36.044Z,100.00
2023-04-25T06:09:37.529Z,100.00
2023-04-25T06:11:39.107Z,100.00
2023-04-25T06:13:40.619Z,100.00
2023-04-25T06:15:42.169Z,100.00
2023-04-25T06:17:43.814Z,100.00
2023-04-25T06:19:45.264Z,100.00
2023-04-25T06:21:46.849Z,100.00
2023-04-25T06:23:48.895Z,100.00
2023-04-25T06:25:50.995Z,100.00
2023-04-25T06:27:52.612Z,100.00
2023-04-25T06:29:54.227Z,100.00
2023-04-25T06:31:55.640Z,100.00
2023-04-25T06:33:57.121Z,100.00
2023-04-25T06:35:58.650Z,100.00
2023-04-25T06:38:00.029Z,100.00
2023-04-25T06:40:01.668Z,100.00
2023-04-25T06:42:03.233Z,100.00
2023-04-25T06:44:04.659Z,100.00
2023-04-25T06:46:06.204Z,100.00
2023-04-25T06:48:07.731Z,100.00
2023-04-25T06:50:09.646Z,100.00
2023-04-25T06:52:11.410Z,100.00
2023-04-25T06:54:12.790Z,100.00
2023-04-25T06:56:14.206Z,100.00
2023-04-25T06:58:15.988Z,100.00
2023-04-25T07:00:17.814Z,100.00
2023-04-25T07:02:19.434Z,100.00
2023-04-25T07:04:21.255Z,100.00
2023-04-25T07:06:22.936Z,100.00
2023-04-25T07:08:24.340Z,100.00
2023-04-25T07:10:26.026Z,100.00
2023-04-25T07:12:27.676Z,100.00
2023-04-25T07:14:29.247Z,100.00
2023-04-25T07:16:30.975Z,100.00
2023-04-25T07:18:32.600Z,100.00
2023-04-25T07:20:34.021Z,100.00
2023-04-25T07:22:35.884Z,100.00
2023-04-25T07:24:37.280Z,100.00
2023-04-25T07:26:38.685Z,100.00
2023-04-25T07:28:40.170Z,100.00
2023-04-25T07:30:41.622Z,100.00
2023-04-25T07:32:43.167Z,100.00
2023-04-25T07:34:44.589Z,100.00
2023-04-25T07:36:46.101Z,100.00
2023-04-25T07:38:47.541Z,100.00
2023-04-25T07:40:49.798Z,100.00
2023-04-25T07:42:51.266Z,100.00
2023-04-25T07:44:52.695Z,100.00
2023-04-25T07:46:54.740Z,100.00
2023-04-25T07:48:56.217Z,100.00
2023-04-25T07:50:57.731Z,100.00
2023-04-25T07:52:59.257Z,100.00
2023-04-25T07:55:00.822Z,100.00
2023-04-25T07:57:02.261Z,100.00
2023-04-25T07:59:03.722Z,100.00
2023-04-25T08:01:05.186Z,100.00
2023-04-25T08:03:06.769Z,100.00
2023-04-25T08:05:08.751Z,100.00
2023-04-25T08:07:10.324Z,100.00
2023-04-25T08:09:11.895Z,100.00
2023-04-25T08:11:13.332Z,100.00
2023-04-25T08:13:14.904Z,100.00
2023-04-25T08:15:16.308Z,100.00
2023-04-25T08:17:17.747Z,100.00
2023-04-25T08:19:19.196Z,100.00
2023-04-25T08:21:20.825Z,100.00
2023-04-25T08:23:22.212Z,100.00
2023-04-25T08:25:23.901Z,100.00
2023-04-25T08:27:25.348Z,100.00
2023-04-25T08:29:26.805Z,100.00
2023-04-25T08:31:28.485Z,100.00
2023-04-25T08:33:29.970Z,100.00
2023-04-25T08:35:31.467Z,100.00
2023-04-25T08:37:33.266Z,100.00
2023-04-25T08:39:34.707Z,100.00
2023-04-25T08:41:38.200Z,100.00
2023-04-25T08:43:43.589Z,100.00
2023-04-25T08:45:45.374Z,100.00
2023-04-25T08:47:48.735Z,100.00
2023-04-25T08:49:54.931Z,100.00
2023-04-25T08:52:03.709Z,100.00
2023-04-25T08:54:27.196Z,100.00
2023-04-25T08:56:33.334Z,100.00
2023-04-25T08:58:34.879Z,100.00
2023-04-25T09:00:36.405Z,100.00
2023-04-25T09:02:38.340Z,98.81
2023-04-25T09:04:40.158Z,95.58
2023-04-25T09:06:42.105Z,93.01
2023-04-25T09:08:43.708Z,91.99
2023-04-25T09:10:45.181Z,96.38
2023-04-25T09:13:03.108Z,88.07
2023-04-25T09:15:07.370Z,98.39
2023-04-25T09:17:08.935Z,98.89
2023-04-25T09:19:31.990Z,97.09
2023-04-25T09:21:40.134Z,97.79
2023-04-25T09:23:49.650Z,96.92
2023-04-25T09:25:53.502Z,98.12
2023-04-25T09:27:55.092Z,97.12
2023-04-25T09:29:59.972Z,99.37
2023-04-25T09:32:23.997Z,98.48
2023-04-25T09:34:26.871Z,100.00
2023-04-25T09:36:29.186Z,99.52
2023-04-25T09:38:32.276Z,99.51
2023-04-25T09:40:33.694Z,100.00
2023-04-25T09:42:35.161Z,99.77
2023-04-25T09:44:37.094Z,96.10
2023-04-25T09:46:38.754Z,98.79
2023-04-25T09:48:40.305Z,99.66
2023-04-25T09:50:42.056Z,94.33
2023-04-25T09:52:43.956Z,88.98
2023-04-25T09:54:49.522Z,84.65
2023-04-25T09:56:53.188Z,86.33
2023-04-25T09:58:54.695Z,88.03
2023-04-25T10:01:00.898Z,88.44
2023-04-25T10:03:03.497Z,88.53
2023-04-25T10:05:10.059Z,88.20
2023-04-25T10:07:12.136Z,90.47
2023-04-25T10:09:14.901Z,86.25
2023-04-25T10:11:16.762Z,80.73
2023-04-25T10:13:18.449Z,81.96
2023-04-25T10:15:20.985Z,80.43
2023-04-25T10:17:22.430Z,84.30
2023-04-25T10:19:24.934Z,85.34
2023-04-25T10:21:29.458Z,81.22
2023-04-25T10:23:32.255Z,81.61
2023-04-25T10:25:34.497Z,83.24
2023-04-25T10:27:36.779Z,80.32
2023-04-25T10:29:38.193Z,82.90
2023-04-25T10:31:48.764Z,84.63
2023-04-25T10:33:50.691Z,82.71
2023-04-25T10:35:52.383Z,85.77
2023-04-25T10:38:26.800Z,85.84
2023-04-25T10:40:28.965Z,82.48
2023-04-25T10:42:30.403Z,82.37
2023-04-25T10:44:32.783Z,85.75
2023-04-25T10:46:34.905Z,86.60
2023-04-25T10:48:36.371Z,80.29
2023-04-25T10:50:41.905Z,82.46
2023-04-25T10:52:43.671Z,78.66
2023-04-25T10:54:59.176Z,77.96
2023-04-25T10:57:00.628Z,77.28
2023-04-25T10:59:15.361Z,81.47
2023-04-25T11:01:21.347Z,82.83
2023-04-25T11:03:22.986Z,79.33
2023-04-25T11:05:36.467Z,80.85
2023-04-25T11:08:04.027Z,85.56
2023-04-25T11:10:08.633Z,85.43
2023-04-25T11:12:10.895Z,83.04
2023-04-25T11:14:12.318Z,84.17
2023-04-25T11:16:23.739Z,82.06
2023-04-25T11:18:29.250Z,79.15
2023-04-25T11:20:30.682Z,79.91
2023-04-25T11:22:32.492Z,81.24
2023-04-25T11:24:35.965Z,81.55
2023-04-25T11:26:37.391Z,82.15
2023-04-25T11:28:38.822Z,78.13
2023-04-25T11:30:41.423Z,76.01
2023-04-25T11:32:43.436Z,75.69
2023-04-25T11:34:45.446Z,77.58
2023-04-25T11:36:47.427Z,71.05
2023-04-25T11:38:48.891Z,70.36
2023-04-25T11:40:54.021Z,72.53
2023-04-25T11:42:55.945Z,74.39
2023-04-25T11:44:57.548Z,74.43
2023-04-25T11:46:58.933Z,73.28
2023-04-25T11:49:00.639Z,74.04
2023-04-25T11:51:02.059Z,75.19
2023-04-25T11:53:03.484Z,75.56
2023-04-25T11:55:16.076Z,74.42
2023-04-25T11:57:20.652Z,73.78
2023-04-25T11:59:25.010Z,72.35
2023-04-25T12:01:36.002Z,73.35
2023-04-25T12:03:47.553Z,71.21
2023-04-25T12:05:49.378Z,73.45
2023-04-25T12:07:51.265Z,73.06
2023-04-25T12:09:53.010Z,74.78
2023-04-25T12:11:56.440Z,72.18
2023-04-25T12:14:03.167Z,74.96
2023-04-25T12:16:04.824Z,74.77
2023-04-25T12:18:07.532Z,72.55
2023-04-25T12:20:16.732Z,70.26
2023-04-25T12:22:25.249Z,74.32
2023-04-25T12:24:27.847Z,69.20
2023-04-25T12:26:47.211Z,67.96
2023-04-25T12:28:48.727Z,67.46
2023-04-25T12:31:00.495Z,66.57
2023-04-25T12:33:02.233Z,70.34
2023-04-25T12:35:03.823Z,68.71
2023-04-25T12:37:05.221Z,69.27
2023-04-25T12:39:07.129Z,71.23
2023-04-25T12:41:09.779Z,70.27
2023-04-25T12:43:11.166Z,72.48
2023-04-25T12:45:13.001Z,72.03
2023-04-25T12:47:14.873Z,71.76
2023-04-25T12:49:19.370Z,75.00
2023-04-25T12:51:21.235Z,74.23
2023-04-25T12:53:24.129Z,73.57
2023-04-25T12:55:25.568Z,75.76
2023-04-25T12:57:27.347Z,76.35
2023-04-25T12:59:28.791Z,75.92
2023-04-25T13:01:30.847Z,78.38
2023-04-25T13:03:32.797Z,78.83
2023-04-25T13:05:34.403Z,81.00
2023-04-25T13:07:36.069Z,81.58
2023-04-25T13:09:37.835Z,81.18
2023-04-25T13:11:39.280Z,84.39
2023-04-25T13:13:40.708Z,85.64
2023-04-25T13:15:42.352Z,84.23
2023-04-25T13:17:43.910Z,83.27
2023-04-25T13:19:45.395Z,85.73
2023-04-25T13:21:47.045Z,86.07
2023-04-25T13:23:48.466Z,83.74
2023-04-25T13:25:50.202Z,84.54
2023-04-25T13:27:51.948Z,84.71
2023-04-25T13:29:53.354Z,84.59
2023-04-25T13:31:54.782Z,82.84
2023-04-25T13:33:56.599Z,82.94
2023-04-25T13:35:58.112Z,83.61
2023-04-25T13:37:59.687Z,83.64
2023-04-25T13:40:02.325Z,83.54
2023-04-25T13:42:03.823Z,78.48
2023-04-25T13:44:05.299Z,78.37
2023-04-25T13:46:06.911Z,77.39
2023-04-25T13:48:08.509Z,78.50
2023-04-25T13:50:10.331Z,75.69
2023-04-25T13:52:12.305Z,77.93
2023-04-25T13:54:13.720Z,78.27
2023-04-25T13:56:15.183Z,79.94
2023-04-25T13:58:16.657Z,80.07
2023-04-25T14:00:19.053Z,78.71
2023-04-25T14:02:20.507Z,78.43
2023-04-25T14:04:22.317Z,77.36
2023-04-25T14:06:23.807Z,78.73
2023-04-25T14:08:25.248Z,78.07
2023-04-25T14:10:27.404Z,76.68
2023-04-25T14:12:28.805Z,78.20
2023-04-25T14:14:30.206Z,78.30
2023-04-25T14:16:32.268Z,79.02
2023-04-25T14:18:33.704Z,79.52
2023-04-25T14:20:35.186Z,78.51
2023-04-25T14:22:36.855Z,77.98
2023-04-25T14:24:38.605Z,78.22
2023-04-25T14:26:40.219Z,81.58
2023-04-25T14:28:41.887Z,78.48
2023-04-25T14:30:43.291Z,78.80
2023-04-25T14:32:44.778Z,80.44
2023-04-25T14:34:46.369Z,79.73
2023-04-25T14:36:47.758Z,78.26
2023-04-25T14:38:49.212Z,76.82
2023-04-25T14:40:50.999Z,79.20
2023-04-25T14:42:52.388Z,79.80
2023-04-25T14:44:53.792Z,78.17
2023-04-25T14:46:55.625Z,77.71
2023-04-25T14:48:57.428Z,78.42
2023-04-25T14:50:58.885Z,77.73
2023-04-25T14:53:00.808Z,77.09
2023-04-25T14:55:02.484Z,78.67
2023-04-25T14:57:04.022Z,77.55
2023-04-25T14:59:05.465Z,78.06
2023-04-25T15:01:07.151Z,77.02
2023-04-25T15:03:08.734Z,77.78
2023-04-25T15:05:10.533Z,76.16
2023-04-25T15:07:12.070Z,77.38
2023-04-25T15:09:13.507Z,80.43
2023-04-25T15:11:15.076Z,81.49
2023-04-25T15:13:16.487Z,81.53
2023-04-25T15:15:25.925Z,87.65
2023-04-25T15:17:28.586Z,88.34
2023-04-25T15:19:30.031Z,92.68
2023-04-25T15:21:32.132Z,91.44
2023-04-25T15:23:34.031Z,94.39
2023-04-25T15:25:35.446Z,93.21
2023-04-25T15:27:37.665Z,92.35
2023-04-25T15:29:39.248Z,91.95
2023-04-25T15:31:40.698Z,89.90
2023-04-25T15:33:42.158Z,84.18
2023-04-25T15:35:43.865Z,83.48
2023-04-25T15:37:45.344Z,81.58
2023-04-25T15:39:46.745Z,81.64
2023-04-25T15:41:48.183Z,82.38
2023-04-25T15:43:50.119Z,81.65
2023-04-25T15:45:51.709Z,77.81
2023-04-25T15:47:54.774Z,80.16
2023-04-25T15:49:56.251Z,78.85
2023-04-25T15:51:57.712Z,78.01
2023-04-25T15:53:59.281Z,77.24
2023-04-25T15:56:00.778Z,77.67
2023-04-25T15:58:02.816Z,76.29
2023-04-25T16:00:06.774Z,78.17
2023-04-25T16:02:09.185Z,79.72
2023-04-25T16:04:10.931Z,77.37
2023-04-25T16:06:13.055Z,80.55
2023-04-25T16:08:14.469Z,79.75
2023-04-25T16:10:16.340Z,79.29
2023-04-25T16:12:17.911Z,80.47
2023-04-25T16:14:19.363Z,80.54
2023-04-25T16:16:20.808Z,79.69
2023-04-25T16:18:22.407Z,81.70
2023-04-25T16:20:23.907Z,81.93
2023-04-25T16:22:25.495Z,84.26
2023-04-25T16:24:27.142Z,80.21
2023-04-25T16:26:28.579Z,79.51
2023-04-25T16:28:29.979Z,81.69
2023-04-25T16:30:31.605Z,80.55
2023-04-25T16:32:33.014Z,81.27
2023-04-25T16:34:34.439Z,79.30
2023-04-25T16:36:35.843Z,81.35
2023-04-25T16:38:37.280Z,81.37
2023-04-25T16:40:38.701Z,81.71
2023-04-25T16:42:40.191Z,82.88
2023-04-25T16:44:41.619Z,81.98
2023-04-25T16:46:43.147Z,81.10
2023-04-25T16:48:44.648Z,82.62
2023-04-25T16:50:46.262Z,83.38
2023-04-25T16:52:47.675Z,83.67
2023-04-25T16:54:49.271Z,84.25
2023-04-25T16:56:51.132Z,81.32
2023-04-25T16:58:53.244Z,83.46
2023-04-25T17:00:55.241Z,83.04
2023-04-25T17:02:56.986Z,85.75
2023-04-25T17:04:58.475Z,85.87
2023-04-25T17:07:00.067Z,84.56
2023-04-25T17:09:01.691Z,85.71
2023-04-25T17:11:03.613Z,86.65
2023-04-25T17:13:05.128Z,86.24
2023-04-25T17:15:07.296Z,87.47
2023-04-25T17:17:08.839Z,85.69
2023-04-25T17:19:10.928Z,84.74
2023-04-25T17:21:12.427Z,84.30
2023-04-25T17:23:13.846Z,84.83
2023-04-25T17:25:15.470Z,83.93
2023-04-25T17:27:16.939Z,85.12
2023-04-25T17:29:18.376Z,84.71
2023-04-25T17:31:21.132Z,85.92
2023-04-25T17:33:22.566Z,88.42
2023-04-25T17:35:24.009Z,85.13
2023-04-25T17:37:25.936Z,87.22
2023-04-25T17:39:27.351Z,85.74
2023-04-25T17:41:28.750Z,86.54
2023-04-25T17:43:31.102Z,86.84
2023-04-25T17:45:32.835Z,88.39
2023-04-25T17:47:34.406Z,90.35
2023-04-25T17:49:36.966Z,89.82
2023-04-25T17:51:38.425Z,89.64
2023-04-25T17:53:39.826Z,92.23
2023-04-25T17:55:41.453Z,93.30
2023-04-25T17:57:42.841Z,96.01
2023-04-25T17:59:44.314Z,98.30
2023-04-25T18:01:48.046Z,95.82
2023-04-25T18:03:50.319Z,94.80
2023-04-25T18:05:52.051Z,95.73
2023-04-25T18:07:53.678Z,95.73
2023-04-25T18:09:55.078Z,97.00
2023-04-25T18:11:56.526Z,96.68
2023-04-25T18:13:58.661Z,97.67
2023-04-25T18:16:00.100Z,98.48
2023-04-25T18:18:01.650Z,98.50
2023-04-25T18:20:03.222Z,100.00
2023-04-25T18:22:04.644Z,100.00
2023-04-25T18:24:07.117Z,100.00
2023-04-25T18:26:08.867Z,100.00
2023-04-25T18:28:10.277Z,100.00
2023-04-25T18:30:13.087Z,100.00
2023-04-25T18:32:14.808Z,100.00
2023-04-25T18:34:16.207Z,100.00
2023-04-25T18:36:17.602Z,100.00
2023-04-25T18:38:31.731Z,100.00
2023-04-25T18:40:47.016Z,100.00
2023-04-25T18:42:55.542Z,100.00
2023-04-25T18:44:57.152Z,100.00
2023-04-25T18:46:58.605Z,100.00
2023-04-25T18:49:00.866Z,100.00
2023-04-25T18:51:02.580Z,100.00
2023-04-25T18:53:04.009Z,100.00
2023-04-25T18:55:05.929Z,100.00
2023-04-25T18:57:07.480Z,100.00
2023-04-25T18:59:08.888Z,100.00
2023-04-25T19:01:10.320Z,100.00
2023-04-25T19:03:12.065Z,100.00
2023-04-25T19:05:13.585Z,100.00
2023-04-25T19:07:15.116Z,100.00
2023-04-25T19:09:16.945Z,100.00
2023-04-25T19:11:21.059Z,100.00
2023-04-25T19:13:22.914Z,100.00
2023-04-25T19:15:24.642Z,100.00
2023-04-25T19:17:27.343Z,100.00
2023-04-25T19:19:29.837Z,100.00
2023-04-25T19:21:32.434Z,100.00
2023-04-25T19:23:34.576Z,100.00
2023-04-25T19:25:36.594Z,100.00
2023-04-25T19:27:38.925Z,100.00
2023-04-25T19:29:40.312Z,100.00
2023-04-25T19:31:43.825Z,100.00
2023-04-25T19:33:45.470Z,100.00
2023-04-25T19:35:46.882Z,100.00
2023-04-25T19:37:48.283Z,100.00
2023-04-25T19:39:49.901Z,100.00
2023-04-25T19:41:51.327Z,100.00
2023-04-25T19:43:53.281Z,100.00
2023-04-25T19:45:55.104Z,100.00
2023-04-25T19:47:56.693Z,100.00
2023-04-25T19:49:58.124Z,100.00
2023-04-25T19:51:59.579Z,100.00
2023-04-25T19:54:01.068Z,100.00
2023-04-25T19:56:02.648Z,100.00
2023-04-25T19:58:04.340Z,100.00
2023-04-25T20:00:13.367Z,100.00
2023-04-25T20:02:14.843Z,100.00
2023-04-25T20:04:16.520Z,100.00
2023-04-25T20:06:18.212Z,100.00
2023-04-25T20:08:19.701Z,100.00
2023-04-25T20:10:21.251Z,100.00
2023-04-25T20:12:22.739Z,100.00
2023-04-25T20:14:25.396Z,100.00
2023-04-25T20:16:27.037Z,100.00
2023-04-25T20:18:28.505Z,100.00
2023-04-25T20:20:30.193Z,100.00
2023-04-25T20:22:31.973Z,100.00
2023-04-25T20:24:33.391Z,100.00
2023-04-25T20:26:34.927Z,100.00
2023-04-25T20:28:36.431Z,100.00
2023-04-25T20:30:37.857Z,100.00
2023-04-25T20:32:39.749Z,100.00
2023-04-25T20:34:41.382Z,100.00
2023-04-25T20:36:42.754Z,100.00
2023-04-25T20:38:44.377Z,100.00
2023-04-25T20:40:45.959Z,100.00
2023-04-25T20:42:47.415Z,100.00
2023-04-25T20:44:49.017Z,100.00
2023-04-25T20:46:51.151Z,100.00
2023-04-25T20:48:53.022Z,100.00
2023-04-25T20:50:54.758Z,100.00
2023-04-25T20:52:56.201Z,100.00
2023-04-25T20:54:57.653Z,100.00
2023-04-25T20:56:59.258Z,100.00
2023-04-25T20:59:00.661Z,100.00
2023-04-25T21:01:02.611Z,100.00
2023-04-25T21:03:04.451Z,100.00
2023-04-25T21:05:06.458Z,100.00
2023-04-25T21:07:07.934Z,100.00
2023-04-25T21:09:09.438Z,100.00
2023-04-25T21:11:11.694Z,100.00
2023-04-25T21:13:13.194Z,100.00
2023-04-25T21:15:15.901Z,100.00
2023-04-25T21:17:17.641Z,100.00
2023-04-25T21:19:19.072Z,100.00
2023-04-25T21:21:20.485Z,100.00
2023-04-25T21:23:21.915Z,100.00
2023-04-25T21:25:26.138Z,100.00
2023-04-25T21:27:27.832Z,100.00
2023-04-25T21:29:29.236Z,100.00
2023-04-25T21:31:30.745Z,100.00
2023-04-25T21:33:32.413Z,100.00
2023-04-25T21:35:33.798Z,100.00
2023-04-25T21:37:35.207Z,100.00
2023-04-25T21:39:37.084Z,100.00
2023-04-25T21:41:38.721Z,100.00
2023-04-25T21:43:40.157Z,100.00
2023-04-25T21:46:02.114Z,100.00
2023-04-25T21:48:03.110Z,100.00
2023-04-25T21:50:04.878Z,100.00
2023-04-25T21:52:06.516Z,100.00
2023-04-25T21:54:08.062Z,100.00
2023-04-25T21:56:09.881Z,100.00
2023-04-25T21:58:11.280Z,100.00
2023-04-25T22:00:13.115Z,100.00
2023-04-25T22:02:15.148Z,100.00
2023-04-25T22:04:16.922Z,100.00
2023-04-25T22:06:18.807Z,100.00
2023-04-25T22:08:20.202Z,100.00
2023-04-25T22:10:22.052Z,100.00
2023-04-25T22:12:23.809Z,100.00
2023-04-25T22:14:25.288Z,100.00
2023-04-25T22:16:26.895Z,100.00
2023-04-25T22:18:28.475Z,100.00
2023-04-25T22:20:29.897Z,100.00
2023-04-25T22:22:31.480Z,100.00
2023-04-25T22:24:33.002Z,100.00
2023-04-25T22:26:34.399Z,100.00
2023-04-25T22:28:37.092Z,100.00
2023-04-25T22:30:38.589Z,100.00
2023-04-25T22:32:40.250Z,100.00
2023-04-25T22:34:41.777Z,100.00
2023-04-25T22:36:43.522Z,100.00
2023-04-25T22:38:45.446Z,100.00
2023-04-25T22:40:46.929Z,100.00
2023-04-25T22:42:48.496Z,100.00
2023-04-25T22:44:50.327Z,100.00
2023-04-25T22:46:51.786Z,100.00
2023-04-25T22:48:53.664Z,100.00
2023-04-25T22:51:02.643Z,100.00
2023-04-25T22:53:04.123Z,100.00
2023-04-25T22:55:06.371Z,100.00
2023-04-25T22:57:07.796Z,100.00
2023-04-25T22:59:09.380Z,100.00
2023-04-25T23:01:10.903Z,100.00
2023-04-25T23:03:12.421Z,100.00
2023-04-25T23:05:14.845Z,100.00
2023-04-25T23:07:16.532Z,100.00
2023-04-25T23:09:18.000Z,100.00
2023-04-25T23:11:19.564Z,100.00
2023-04-25T23:13:21.457Z,100.00
2023-04-25T23:15:25.589Z,100.00
2023-04-25T23:17:27.070Z,100.00
2023-04-25T23:19:28.648Z,100.00
2023-04-25T23:21:30.096Z,100.00
2023-04-25T23:23:31.598Z,100.00
2023-04-25T23:25:33.653Z,100.00
2023-04-25T23:27:35.077Z,100.00
2023-04-25T23:29:36.536Z,100.00
2023-04-25T23:31:38.120Z,100.00
2023-04-25T23:33:39.549Z,100.00
2023-04-25T23:35:41.028Z,100.00
2023-04-25T23:37:42.492Z,100.00
2023-04-25T23:39:50.629Z,100.00
2023-04-25T23:41:52.230Z,100.00
2023-04-25T23:43:54.179Z,100.00
2023-04-25T23:45:55.635Z,100.00
2023-04-25T23:47:57.339Z,100.00
2023-04-25T23:49:59.022Z,100.00
2023-04-25T23:52:00.459Z,100.00
2023-04-25T23:54:03.682Z,100.00
2023-04-25T23:56:06.452Z,100.00
2023-04-25T23:58:07.873Z,100.00
